createdAt,value
2017-08-07T00:00:37.813Z,2.70
2017-08-07T00:03:04.232Z,3.40
2017-08-07T00:05:30.534Z,3.17
2017-08-07T00:07:56.843Z,3.27
2017-08-07T00:10:23.876Z,2.73
2017-08-07T00:12:50.244Z,3.37
2017-08-07T00:15:16.548Z,4.20
2017-08-07T00:17:42.855Z,3.00
2017-08-07T00:20:09.160Z,3.60
2017-08-07T00:22:35.450Z,3.10
2017-08-07T00:25:01.797Z,3.37
2017-08-07T00:27:28.075Z,3.60
2017-08-07T00:29:54.420Z,3.60
2017-08-07T00:32:20.760Z,4.37
2017-08-07T00:34:47.027Z,3.20
2017-08-07T00:37:13.313Z,3.60
2017-08-07T00:39:40.403Z,3.07
2017-08-07T00:42:06.747Z,3.43
2017-08-07T00:44:33.035Z,3.00
2017-08-07T00:47:00.068Z,3.63
2017-08-07T00:49:26.556Z,3.57
2017-08-07T00:51:52.885Z,3.30
2017-08-07T00:54:19.197Z,3.50
2017-08-07T00:56:45.516Z,3.87
2017-08-07T00:59:11.847Z,3.13
2017-08-07T01:01:38.847Z,3.67
2017-08-07T01:04:05.167Z,3.20
2017-08-07T01:06:31.583Z,3.63
2017-08-07T01:08:57.870Z,3.50
2017-08-07T01:11:24.935Z,2.90
2017-08-07T01:13:51.256Z,3.47
2017-08-07T01:16:17.600Z,3.60
2017-08-07T01:18:43.927Z,3.33
2017-08-07T01:21:10.243Z,3.50
2017-08-07T01:23:37.469Z,3.90
2017-08-07T01:26:03.780Z,3.93
2017-08-07T01:28:30.096Z,3.73
2017-08-07T01:30:56.408Z,4.40
2017-08-07T01:33:23.224Z,4.90
2017-08-07T01:35:49.511Z,4.73
2017-08-07T01:38:15.820Z,3.53
2017-08-07T01:40:42.116Z,3.63
2017-08-07T01:43:08.417Z,3.60
2017-08-07T01:45:34.721Z,4.20
2017-08-07T01:48:01.088Z,3.70
2017-08-07T01:50:28.164Z,4.00
2017-08-07T01:52:55.170Z,4.47
2017-08-07T01:55:21.524Z,5.10
2017-08-07T01:57:48.565Z,4.43
2017-08-07T02:00:15.616Z,4.10
2017-08-07T02:02:42.683Z,3.80
2017-08-07T02:05:09.712Z,3.73
2017-08-07T02:07:36.791Z,5.57
2017-08-07T02:10:03.128Z,4.40
2017-08-07T02:12:29.457Z,5.80
2017-08-07T02:14:55.804Z,4.97
2017-08-07T02:17:22.087Z,3.90
2017-08-07T02:19:48.416Z,4.50
2017-08-07T02:22:15.448Z,4.17
2017-08-07T02:24:42.676Z,4.67
2017-08-07T02:27:08.960Z,4.47
2017-08-07T02:29:35.371Z,4.33
2017-08-07T02:32:02.433Z,4.73
2017-08-07T02:34:29.475Z,4.60
2017-08-07T02:37:02.828Z,4.40
2017-08-07T02:39:29.119Z,4.47
2017-08-07T02:41:55.424Z,3.97
2017-08-07T02:44:22.472Z,4.90
2017-08-07T02:46:48.812Z,4.27
2017-08-07T02:49:15.836Z,4.43
2017-08-07T02:51:42.890Z,4.60
2017-08-07T02:54:09.937Z,4.87
2017-08-07T02:56:36.336Z,4.77
2017-08-07T02:59:02.832Z,5.13
2017-08-07T03:01:29.128Z,4.57
2017-08-07T03:03:55.469Z,4.77
2017-08-07T03:06:22.851Z,4.90
2017-08-07T03:08:49.147Z,4.90
2017-08-07T03:11:16.287Z,4.30
2017-08-07T03:13:43.384Z,5.20
2017-08-07T03:16:09.727Z,5.40
2017-08-07T03:18:36.007Z,5.00
2017-08-07T03:21:03.033Z,6.20
2017-08-07T03:23:29.331Z,6.10
2017-08-07T03:25:55.612Z,6.20
2017-08-07T03:28:22.662Z,4.97
2017-08-07T03:30:49.927Z,5.60
2017-08-07T03:33:16.252Z,6.03
2017-08-07T03:35:43.313Z,5.97
2017-08-07T03:38:09.623Z,6.00
2017-08-07T03:40:43.679Z,5.70
2017-08-07T03:43:09.966Z,5.57
2017-08-07T03:45:36.988Z,5.50
2017-08-07T03:48:04.063Z,5.70
2017-08-07T03:50:30.475Z,6.67
2017-08-07T03:52:56.959Z,5.53
2017-08-07T03:55:23.295Z,5.97
2017-08-07T03:57:49.586Z,5.80
2017-08-07T04:00:16.644Z,6.30
2017-08-07T04:02:43.000Z,5.67
2017-08-07T04:05:09.303Z,5.97
2017-08-07T04:07:35.628Z,5.30
2017-08-07T04:10:02.660Z,6.07
2017-08-07T04:12:29.731Z,6.03
2017-08-07T04:14:56.132Z,5.30
2017-08-07T04:17:22.553Z,5.57
2017-08-07T04:19:48.916Z,6.40
2017-08-07T04:22:16.015Z,6.23
2017-08-07T04:24:42.335Z,7.53
2017-08-07T04:27:08.687Z,5.97
2017-08-07T04:29:34.974Z,7.40
2017-08-07T04:32:01.266Z,6.00
2017-08-07T04:34:27.596Z,6.00
2017-08-07T04:36:53.934Z,5.90
2017-08-07T04:39:20.264Z,6.47
2017-08-07T04:41:46.635Z,6.60
2017-08-07T04:44:13.514Z,6.40
2017-08-07T04:46:39.921Z,7.13
2017-08-07T04:49:06.231Z,5.57
2017-08-07T04:51:32.526Z,6.67
2017-08-07T04:53:59.633Z,6.23
2017-08-07T04:56:26.105Z,5.10
2017-08-07T04:58:53.165Z,5.23
2017-08-07T05:01:20.233Z,4.90
2017-08-07T05:03:46.539Z,4.83
2017-08-07T05:06:13.040Z,4.80
2017-08-07T05:08:39.336Z,4.73
2017-08-07T05:11:05.908Z,4.20
2017-08-07T05:13:32.253Z,4.80
2017-08-07T05:15:58.568Z,5.40
2017-08-07T05:18:24.900Z,3.67
2017-08-07T05:20:52.053Z,4.73
2017-08-07T05:23:18.377Z,3.90
2017-08-07T05:25:44.842Z,3.83
2017-08-07T05:28:11.907Z,3.43
2017-08-07T05:30:38.931Z,3.87
2017-08-07T05:33:05.275Z,3.90
2017-08-07T05:35:31.552Z,3.33
2017-08-07T05:37:57.972Z,3.77
2017-08-07T05:40:24.275Z,3.80
2017-08-07T05:42:51.355Z,3.23
2017-08-07T05:45:17.664Z,3.70
2017-08-07T05:47:43.953Z,3.40
2017-08-07T05:50:13.806Z,3.10
2017-08-07T05:52:40.102Z,3.43
2017-08-07T05:55:06.393Z,3.20
2017-08-07T05:57:32.786Z,3.00
2017-08-07T05:59:59.825Z,3.00
2017-08-07T06:02:26.968Z,2.83
2017-08-07T06:04:54.015Z,3.30
2017-08-07T06:07:21.055Z,2.80
2017-08-07T06:09:47.364Z,3.33
2017-08-07T06:12:13.652Z,3.00
2017-08-07T06:14:39.973Z,2.67
2017-08-07T06:17:06.264Z,2.60
2017-08-07T06:19:33.316Z,3.10
2017-08-07T06:21:59.653Z,3.10
2017-08-07T06:24:26.683Z,3.67
2017-08-07T06:26:52.972Z,2.83
2017-08-07T06:29:19.284Z,2.50
2017-08-07T06:31:45.636Z,2.73
2017-08-07T06:34:11.920Z,2.60
2017-08-07T06:36:39.004Z,2.60
2017-08-07T06:39:05.303Z,2.33
2017-08-07T06:41:32.520Z,2.70
2017-08-07T06:43:58.864Z,2.60
2017-08-07T06:46:25.163Z,3.00
2017-08-07T06:48:51.459Z,2.17
2017-08-07T06:51:18.545Z,2.20
2017-08-07T06:53:44.856Z,2.47
2017-08-07T06:56:11.192Z,2.30
2017-08-07T06:58:37.465Z,2.63
2017-08-07T07:01:04.682Z,2.00
2017-08-07T07:03:30.973Z,2.60
2017-08-07T07:05:58.031Z,2.28
2017-08-07T07:08:24.407Z,2.20
2017-08-07T07:10:50.732Z,2.10
2017-08-07T07:13:17.084Z,1.92
2017-08-07T07:15:44.121Z,2.00
2017-08-07T07:18:10.401Z,2.00
2017-08-07T07:20:36.708Z,1.75
2017-08-07T07:23:03.705Z,2.00
2017-08-07T07:25:30.058Z,2.10
2017-08-07T07:27:56.380Z,1.85
2017-08-07T07:30:22.696Z,1.60
2017-08-07T07:32:49.007Z,1.60
2017-08-07T07:35:15.354Z,1.52
2017-08-07T07:37:41.631Z,1.60
2017-08-07T07:40:07.975Z,1.70
2017-08-07T07:42:35.044Z,1.80
2017-08-07T07:45:01.312Z,1.60
2017-08-07T07:47:27.629Z,1.70
2017-08-07T07:49:53.925Z,1.70
2017-08-07T07:52:20.225Z,1.77
2017-08-07T07:54:46.560Z,1.45
2017-08-07T07:57:13.612Z,1.50
2017-08-07T07:59:40.729Z,1.70
2017-08-07T08:02:07.028Z,1.67
2017-08-07T08:04:33.390Z,1.40
2017-08-07T08:06:59.736Z,2.15
2017-08-07T08:09:26.019Z,1.48
2017-08-07T08:11:52.416Z,1.80
2017-08-07T08:14:19.468Z,1.95
2017-08-07T08:16:46.580Z,2.08
2017-08-07T08:19:12.903Z,2.10
2017-08-07T08:21:39.208Z,2.37
2017-08-07T08:24:05.476Z,1.75
2017-08-07T08:26:31.763Z,2.08
2017-08-07T08:28:58.103Z,1.98
2017-08-07T08:31:24.466Z,2.10
2017-08-07T08:33:51.545Z,2.00
2017-08-07T08:36:18.610Z,2.05
2017-08-07T08:38:44.895Z,1.80
2017-08-07T08:41:11.203Z,2.17
2017-08-07T08:43:37.566Z,1.70
2017-08-07T08:46:04.596Z,1.80
2017-08-07T08:48:30.948Z,1.55
2017-08-07T08:50:57.986Z,1.60
2017-08-07T08:53:24.352Z,1.80
2017-08-07T08:55:50.800Z,1.60
2017-08-07T08:58:17.081Z,1.52
2017-08-07T09:00:44.233Z,1.60
2017-08-07T09:03:11.298Z,1.40
2017-08-07T09:05:38.349Z,1.40
2017-08-07T09:08:04.656Z,1.90
2017-08-07T09:10:31.706Z,1.70
2017-08-07T09:12:58.836Z,1.55
2017-08-07T09:15:25.940Z,1.70
2017-08-07T09:17:52.212Z,1.40
2017-08-07T09:20:18.637Z,1.50
2017-08-07T09:22:44.930Z,1.77
2017-08-07T09:25:11.329Z,1.60
2017-08-07T09:27:38.639Z,1.77
2017-08-07T09:30:04.941Z,1.60
2017-08-07T09:32:31.314Z,1.75
2017-08-07T09:34:57.636Z,1.60
2017-08-07T09:37:24.036Z,1.60
2017-08-07T09:39:50.519Z,1.45
2017-08-07T09:42:16.839Z,1.75
2017-08-07T09:44:43.181Z,1.65
2017-08-07T09:47:10.268Z,1.62
2017-08-07T09:49:36.755Z,1.50
2017-08-07T09:52:03.097Z,1.83
2017-08-07T09:54:29.420Z,1.50
2017-08-07T09:56:56.540Z,1.80
2017-08-07T09:59:22.879Z,1.90
2017-08-07T10:01:49.167Z,2.30
2017-08-07T10:04:15.485Z,1.70
2017-08-07T10:06:42.531Z,2.30
2017-08-07T10:09:09.587Z,2.30
2017-08-07T10:11:36.636Z,2.00
2017-08-07T10:14:03.707Z,2.23
2017-08-07T10:16:30.007Z,2.63
2017-08-07T10:18:57.065Z,2.83
2017-08-07T10:21:23.383Z,2.77
2017-08-07T10:23:50.439Z,3.00
2017-08-07T10:26:16.728Z,2.83
2017-08-07T10:28:43.069Z,3.23
2017-08-07T10:31:09.368Z,2.50
2017-08-07T10:33:35.686Z,2.50
2017-08-07T10:36:01.988Z,2.40
2017-08-07T10:38:28.506Z,2.20
2017-08-07T10:40:54.824Z,2.00
2017-08-07T10:43:21.119Z,2.40
2017-08-07T10:45:54.404Z,2.90
2017-08-07T10:48:20.720Z,2.37
2017-08-07T10:50:47.085Z,1.80
2017-08-07T10:53:13.400Z,2.13
2017-08-07T10:55:39.684Z,2.17
2017-08-07T10:58:05.981Z,1.97
2017-08-07T11:00:32.248Z,2.40
2017-08-07T11:02:59.449Z,2.30
2017-08-07T11:05:25.759Z,2.60
2017-08-07T11:07:52.285Z,2.67
2017-08-07T11:10:18.655Z,2.27
2017-08-07T11:12:44.969Z,2.57
2017-08-07T11:15:11.327Z,2.70
2017-08-07T11:17:37.609Z,2.80
2017-08-07T11:20:03.993Z,2.30
2017-08-07T11:22:31.059Z,2.30
2017-08-07T11:24:57.402Z,3.03
2017-08-07T11:27:23.742Z,2.47
2017-08-07T11:29:50.185Z,2.80
2017-08-07T11:32:16.524Z,2.73
2017-08-07T11:34:42.849Z,2.40
2017-08-07T11:37:09.296Z,2.37
2017-08-07T11:39:35.616Z,2.43
2017-08-07T11:42:01.908Z,2.37
2017-08-07T11:44:28.252Z,2.83
2017-08-07T11:46:54.556Z,2.30
2017-08-07T11:49:20.900Z,2.80
2017-08-07T11:51:47.205Z,2.10
2017-08-07T11:54:14.296Z,2.03
2017-08-07T11:56:40.792Z,2.73
2017-08-07T11:59:07.104Z,2.13
2017-08-07T12:01:33.428Z,2.50
2017-08-07T12:03:59.700Z,2.30
2017-08-07T12:06:26.011Z,2.40
2017-08-07T12:08:52.360Z,2.00
2017-08-07T12:11:18.687Z,2.23
2017-08-07T12:13:45.728Z,2.50
2017-08-07T12:16:12.071Z,2.23
2017-08-07T12:18:38.373Z,2.90
2017-08-07T12:21:04.741Z,2.37
2017-08-07T12:23:31.112Z,2.40
2017-08-07T12:25:57.448Z,2.10
2017-08-07T12:28:23.763Z,2.70
2017-08-07T12:30:50.143Z,2.20
2017-08-07T12:33:17.224Z,2.30
2017-08-07T12:35:43.535Z,2.03
2017-08-07T12:38:10.773Z,2.17
2017-08-07T12:40:37.844Z,2.30
2017-08-07T12:43:04.331Z,2.37
2017-08-07T12:45:30.661Z,1.97
2017-08-07T12:47:57.040Z,2.07
2017-08-07T12:50:23.339Z,1.80
2017-08-07T12:52:49.664Z,2.03
2017-08-07T12:55:16.771Z,2.63
2017-08-07T12:57:43.160Z,2.20
2017-08-07T13:00:10.262Z,2.00
2017-08-07T13:02:36.572Z,1.70
2017-08-07T13:05:02.934Z,2.00
2017-08-07T13:07:29.225Z,1.90
2017-08-07T13:09:55.548Z,1.90
2017-08-07T13:12:21.843Z,1.67
2017-08-07T13:14:48.140Z,2.17
2017-08-07T13:17:14.460Z,1.97
2017-08-07T13:19:40.788Z,1.90
2017-08-07T13:22:07.111Z,1.83
2017-08-07T13:24:33.640Z,1.97
2017-08-07T13:26:59.977Z,1.90
2017-08-07T13:29:26.640Z,2.57
2017-08-07T13:31:53.120Z,1.90
2017-08-07T13:34:19.443Z,2.10
2017-08-07T13:36:46.474Z,2.20
2017-08-07T13:39:12.996Z,2.00
2017-08-07T13:41:39.265Z,2.17
2017-08-07T13:44:05.597Z,2.10
2017-08-07T13:46:31.913Z,2.00
2017-08-07T13:48:58.978Z,1.70
2017-08-07T13:51:25.296Z,1.73
2017-08-07T13:53:51.581Z,1.60
2017-08-07T13:56:17.916Z,1.90
2017-08-07T13:58:44.259Z,2.10
2017-08-07T14:01:10.575Z,1.67
2017-08-07T14:03:36.905Z,1.90
2017-08-07T14:06:03.232Z,1.83
2017-08-07T14:08:29.551Z,1.87
2017-08-07T14:10:55.862Z,1.87
2017-08-07T14:13:22.197Z,2.20
2017-08-07T14:15:48.531Z,2.23
2017-08-07T14:18:14.856Z,1.80
2017-08-07T14:20:41.175Z,2.20
2017-08-07T14:23:07.471Z,2.00
2017-08-07T14:25:34.667Z,2.23
2017-08-07T14:28:00.984Z,2.20
2017-08-07T14:30:27.325Z,2.10
2017-08-07T14:32:53.661Z,1.90
2017-08-07T14:35:20.003Z,2.07
2017-08-07T14:37:46.310Z,1.97
2017-08-07T14:40:12.648Z,2.17
2017-08-07T14:42:38.960Z,2.50
2017-08-07T14:45:05.224Z,2.43
2017-08-07T14:47:31.560Z,2.10
2017-08-07T14:49:57.844Z,2.10
2017-08-07T14:52:24.162Z,2.30
2017-08-07T14:54:57.484Z,1.90
2017-08-07T14:57:23.792Z,2.37
2017-08-07T14:59:50.236Z,2.60
2017-08-07T15:02:16.640Z,2.40
2017-08-07T15:04:43.721Z,2.30
2017-08-07T15:07:10.101Z,2.40
2017-08-07T15:09:36.457Z,2.67
2017-08-07T15:12:03.537Z,1.93
2017-08-07T15:14:29.839Z,2.60
2017-08-07T15:16:56.893Z,2.20
2017-08-07T15:19:23.211Z,3.20
2017-08-07T15:21:50.251Z,2.60
2017-08-07T15:24:17.268Z,2.47
2017-08-07T15:26:43.549Z,2.40
2017-08-07T15:29:09.886Z,2.23
2017-08-07T15:31:36.172Z,2.50
2017-08-07T15:34:02.620Z,2.77
2017-08-07T15:36:29.637Z,2.47
2017-08-07T15:38:56.045Z,2.60
2017-08-07T15:41:22.365Z,2.70
2017-08-07T15:43:48.715Z,2.40
2017-08-07T15:46:15.120Z,2.63
2017-08-07T15:48:41.440Z,2.43
2017-08-07T15:51:07.909Z,2.33
2017-08-07T15:53:34.283Z,2.17
2017-08-07T15:56:01.312Z,2.40
2017-08-07T15:58:27.685Z,2.23
2017-08-07T16:00:53.967Z,2.37
2017-08-07T16:03:20.296Z,2.40
2017-08-07T16:05:46.616Z,2.60
2017-08-07T16:08:12.908Z,2.47
2017-08-07T16:10:39.243Z,2.30
2017-08-07T16:13:05.567Z,2.90
2017-08-07T16:15:31.971Z,2.57
2017-08-07T16:17:58.336Z,2.60
2017-08-07T16:20:24.643Z,2.23
2017-08-07T16:22:51.680Z,2.63
2017-08-07T16:25:18.741Z,2.10
2017-08-07T16:27:45.085Z,2.30
2017-08-07T16:30:33.390Z,2.63
2017-08-07T16:33:00.443Z,2.13
2017-08-07T16:35:26.793Z,2.27
2017-08-07T16:37:53.087Z,2.70
2017-08-07T16:40:19.377Z,2.00
2017-08-07T16:42:45.762Z,2.27
2017-08-07T16:45:12.064Z,2.60
2017-08-07T16:47:38.396Z,2.23
2017-08-07T16:50:04.712Z,2.30
2017-08-07T16:52:31.063Z,2.30
2017-08-07T16:54:57.569Z,2.17
2017-08-07T16:57:23.909Z,3.00
2017-08-07T16:59:50.233Z,3.03
2017-08-07T17:02:16.591Z,2.47
2017-08-07T17:04:42.911Z,2.67
2017-08-07T17:07:09.292Z,2.50
2017-08-07T17:09:35.607Z,2.13
2017-08-07T17:12:02.777Z,2.30
2017-08-07T17:14:29.147Z,2.10
2017-08-07T17:16:55.468Z,2.37
2017-08-07T17:19:21.773Z,2.77
2017-08-07T17:21:48.060Z,2.50
2017-08-07T17:24:14.524Z,2.60
2017-08-07T17:26:40.812Z,2.90
2017-08-07T17:29:07.128Z,2.57
2017-08-07T17:31:33.438Z,2.23
2017-08-07T17:33:59.730Z,2.20
2017-08-07T17:36:26.092Z,2.47
2017-08-07T17:38:52.751Z,2.53
2017-08-07T17:41:19.081Z,1.80
2017-08-07T17:43:45.407Z,2.43
2017-08-07T17:46:11.729Z,2.33
2017-08-07T17:48:38.063Z,2.40
2017-08-07T17:51:04.340Z,2.80
2017-08-07T17:53:30.666Z,2.60
2017-08-07T17:55:56.972Z,2.30
2017-08-07T17:58:23.297Z,2.30
2017-08-07T18:00:49.612Z,2.80
2017-08-07T18:03:15.933Z,2.83
2017-08-07T18:05:42.221Z,2.70
2017-08-07T18:08:09.292Z,3.10
2017-08-07T18:10:35.608Z,2.50
2017-08-07T18:13:02.887Z,2.73
2017-08-07T18:15:29.208Z,2.63
2017-08-07T18:17:55.537Z,3.50
2017-08-07T18:20:21.887Z,2.87
2017-08-07T18:22:48.236Z,3.67
2017-08-07T18:25:14.558Z,2.80
2017-08-07T18:27:40.876Z,2.90
2017-08-07T18:30:07.239Z,2.53
2017-08-07T18:32:33.547Z,2.47
2017-08-07T18:34:59.873Z,2.70
2017-08-07T18:37:26.180Z,3.63
2017-08-07T18:39:52.496Z,2.80
2017-08-07T18:42:19.576Z,5.67
2017-08-07T18:44:45.893Z,3.37
2017-08-07T18:47:12.243Z,3.20
2017-08-07T18:49:38.569Z,3.10
2017-08-07T18:52:04.891Z,3.77
2017-08-07T18:54:31.196Z,3.20
2017-08-07T18:56:58.271Z,3.00
2017-08-07T18:59:24.577Z,3.20
2017-08-07T19:01:51.617Z,3.03
2017-08-07T19:04:18.693Z,2.90
2017-08-07T19:06:51.893Z,2.90
2017-08-07T19:09:18.229Z,3.50
2017-08-07T19:11:44.553Z,3.40
2017-08-07T19:14:10.931Z,3.90
2017-08-07T19:16:37.991Z,3.13
2017-08-07T19:19:05.053Z,3.30
2017-08-07T19:21:31.393Z,4.00
2017-08-07T19:23:57.692Z,3.60
2017-08-07T19:26:24.772Z,3.90
2017-08-07T19:28:51.064Z,3.87
2017-08-07T19:31:18.144Z,3.40
2017-08-07T19:33:44.538Z,3.27
2017-08-07T19:36:10.828Z,2.90
2017-08-07T19:38:37.134Z,3.23
2017-08-07T19:41:03.473Z,3.37
2017-08-07T19:43:29.832Z,3.30
2017-08-07T19:45:56.151Z,3.90
2017-08-07T19:48:22.485Z,3.60
2017-08-07T19:50:48.813Z,3.10
2017-08-07T19:53:15.123Z,3.37
2017-08-07T19:55:41.418Z,3.90
2017-08-07T19:58:08.472Z,3.67
2017-08-07T20:00:35.568Z,3.20
2017-08-07T20:03:01.960Z,3.53
2017-08-07T20:05:29.015Z,3.77
2017-08-07T20:07:55.376Z,4.30
2017-08-07T20:10:21.707Z,4.30
2017-08-07T20:12:48.050Z,5.43
2017-08-07T20:15:14.393Z,5.80
2017-08-07T20:17:40.677Z,7.70
2017-08-07T20:20:07.020Z,12.10
2017-08-07T20:22:33.332Z,7.67
2017-08-07T20:24:59.624Z,10.67
2017-08-07T20:27:25.997Z,6.53
2017-08-07T20:29:52.334Z,4.57
2017-08-07T20:32:18.655Z,4.03
2017-08-07T20:34:44.956Z,3.30
2017-08-07T20:37:12.010Z,3.77
2017-08-07T20:39:39.085Z,4.00
2017-08-07T20:42:05.398Z,4.30
2017-08-07T20:44:31.711Z,4.30
2017-08-07T20:46:58.801Z,3.30
2017-08-07T20:49:25.154Z,3.50
2017-08-07T20:51:51.593Z,3.90
2017-08-07T20:54:17.941Z,3.80
2017-08-07T20:56:44.272Z,3.93
2017-08-07T20:59:10.635Z,4.13
2017-08-07T21:01:36.991Z,3.57
2017-08-07T21:04:03.318Z,3.40
2017-08-07T21:06:29.641Z,3.23
2017-08-07T21:08:56.015Z,3.57
2017-08-07T21:11:22.421Z,3.50
2017-08-07T21:13:48.721Z,4.03
2017-08-07T21:16:15.264Z,3.27
2017-08-07T21:18:41.585Z,4.00
2017-08-07T21:21:07.945Z,3.73
2017-08-07T21:23:34.337Z,3.90
2017-08-07T21:26:01.609Z,4.30
2017-08-07T21:28:27.913Z,3.90
2017-08-07T21:30:54.278Z,4.60
2017-08-07T21:33:20.635Z,4.40
2017-08-07T21:35:47.139Z,3.73
2017-08-07T21:38:13.971Z,4.33
2017-08-07T21:40:40.328Z,3.53
2017-08-07T21:43:07.165Z,5.10
2017-08-07T21:45:34.332Z,7.10
2017-08-07T21:48:00.781Z,3.57
2017-08-07T21:50:27.196Z,4.10
2017-08-07T21:52:53.857Z,3.80
2017-08-07T21:55:22.195Z,4.30
2017-08-07T21:57:49.611Z,3.70
2017-08-07T22:00:16.092Z,3.70
2017-08-07T22:02:42.394Z,4.07
2017-08-07T22:05:08.974Z,3.80
2017-08-07T22:07:35.296Z,3.80
2017-08-07T22:10:01.607Z,4.00
2017-08-07T22:12:27.922Z,3.90
2017-08-07T22:14:54.276Z,4.10
2017-08-07T22:17:20.619Z,3.97
2017-08-07T22:19:47.040Z,3.80
2017-08-07T22:22:13.388Z,3.80
2017-08-07T22:24:39.895Z,4.43
2017-08-07T22:27:06.333Z,4.00
2017-08-07T22:29:32.672Z,4.30
2017-08-07T22:31:58.976Z,4.37
2017-08-07T22:34:25.281Z,4.30
2017-08-07T22:36:51.663Z,4.40
2017-08-07T22:39:17.952Z,4.37
2017-08-07T22:41:44.396Z,4.33
2017-08-07T22:44:10.699Z,3.90
2017-08-07T22:46:37.756Z,4.40
2017-08-07T22:49:04.819Z,4.30
2017-08-07T22:51:31.149Z,4.20
2017-08-07T22:53:57.471Z,4.13
2017-08-07T22:56:23.764Z,3.67
2017-08-07T22:58:50.248Z,4.50
2017-08-07T23:01:16.592Z,3.57
2017-08-07T23:03:42.972Z,3.97
2017-08-07T23:06:09.263Z,4.63
2017-08-07T23:08:35.620Z,4.07
2017-08-07T23:11:01.914Z,4.07
2017-08-07T23:13:28.249Z,3.90
2017-08-07T23:15:54.537Z,3.90
2017-08-07T23:18:21.596Z,3.63
2017-08-07T23:20:47.935Z,3.93
2017-08-07T23:23:14.240Z,4.00
2017-08-07T23:25:41.290Z,3.93
2017-08-07T23:28:07.603Z,3.80
2017-08-07T23:30:33.912Z,4.23
2017-08-07T23:33:00.245Z,4.00
2017-08-07T23:35:26.575Z,3.60
2017-08-07T23:37:52.940Z,4.40
2017-08-07T23:40:20.040Z,4.40
2017-08-07T23:42:46.354Z,4.17
2017-08-07T23:45:12.684Z,4.27
2017-08-07T23:47:38.980Z,3.93
2017-08-07T23:50:06.162Z,4.67
2017-08-07T23:52:32.485Z,3.97
2017-08-07T23:54:58.792Z,3.30
2017-08-07T23:57:29.083Z,4.20
2017-08-07T23:59:56.007Z,4.27
